Time;durP1;ratioP1;P1;durP2;ratioP2;P2;SDS_P1;SDS_P2;PMS_P1;PMS_P2;Temp;Humidity;BMP_temperature;BMP_pressure;BME280_temperature;BME280_humidity;BME280_pressure;Samples;Min_cycle;Max_cycle;Signal;HPM_P1;HPM_P2
2022/02/17 00:01:56;;;;;;;2.02;0.80;;;;;;;8.61;66.45;97275.14;4348401;80;21065;-90
2022/02/17 00:08:01;;;;;;;1.02;0.65;;;;;;;8.59;66.79;97243.98;4344703;80;21814;-90
2022/02/17 00:14:02;;;;;;;1.05;0.70;;;;;;;8.51;67.51;97222.03;4341510;79;20982;-93
2022/02/17 00:20:09;;;;;;;1.85;0.80;;;;;;;8.54;67.50;97201.55;4360666;80;21088;-92
2022/02/17 00:26:11;;;;;;;1.82;0.70;;;;;;;8.57;67.57;97176.78;4313477;80;21036;-91
2022/02/17 00:32:13;;;;;;;1.42;0.68;;;;;;;8.58;68.25;97129.25;4296988;81;21049;-91
2022/02/17 00:38:15;;;;;;;1.45;0.70;;;;;;;8.54;68.25;97077.47;4297615;82;21070;-90
2022/02/17 00:44:19;;;;;;;0.60;0.40;;;;;;;8.45;68.02;97106.41;4297286;81;21058;-90
2022/02/17 00:50:27;;;;;;;1.00;0.80;;;;;;;8.50;69.00;97107.33;4299988;81;21052;-91
2022/02/17 00:56:30;;;;;;;0.73;0.30;;;;;;;8.44;68.22;97148.49;4301105;81;21072;-90
2022/02/17 01:02:32;;;;;;;1.32;0.62;;;;;;;8.52;69.29;97103.61;4304269;81;21011;-90
2022/02/17 01:08:35;;;;;;;1.05;0.50;;;;;;;8.45;69.35;97057.32;4300801;82;21062;-92
2022/02/17 01:14:53;;;;;;;0.82;0.70;;;;;;;8.50;70.01;97097.78;4293416;82;21036;-91
2022/02/17 01:20:53;;;;;;;1.40;0.70;;;;;;;8.58;70.39;97098.65;4270893;81;21062;-91
2022/02/17 01:26:59;;;;;;;1.37;0.57;;;;;;;8.69;70.54;97120.37;4330110;80;21003;-92
2022/02/17 01:33:12;;;;;;;1.52;1.00;;;;;;;8.76;71.16;97077.98;4338754;79;21120;-92
2022/02/17 01:39:20;;;;;;;1.17;0.60;;;;;;;8.73;71.00;97056.98;4381350;80;21775;-92
2022/02/17 01:45:23;;;;;;;2.02;0.72;;;;;;;8.77;71.17;97031.20;4332491;80;21071;-91
2022/02/17 01:51:26;;;;;;;0.98;0.78;;;;;;;8.82;71.37;96998.59;4349282;80;21111;-92
2022/02/17 01:57:32;;;;;;;1.47;0.90;;;;;;;8.90;71.75;96997.31;4348671;80;21041;-92
2022/02/17 02:03:37;;;;;;;1.65;0.75;;;;;;;9.06;72.31;96938.80;4378948;80;21105;-91
2022/02/17 02:09:41;;;;;;;1.65;0.88;;;;;;;9.16;72.28;96964.55;4364323;80;21624;-91
2022/02/17 02:15:50;;;;;;;1.27;0.98;;;;;;;9.21;72.40;96966.82;4369302;80;21527;-91
2022/02/17 02:21:56;;;;;;;1.80;1.02;;;;;;;9.19;72.37;96961.61;4364164;80;21009;-91
2022/02/17 02:27:57;;;;;;;1.47;0.90;;;;;;;9.19;72.62;96954.78;4370792;80;20998;-92
2022/02/17 02:34:00;;;;;;;1.15;0.90;;;;;;;9.19;72.76;96924.14;4341463;80;21118;-91
2022/02/17 02:40:06;;;;;;;1.15;0.80;;;;;;;9.24;72.91;96926.41;4347554;80;21089;-92
2022/02/17 02:46:13;;;;;;;1.50;0.80;;;;;;;9.32;73.49;96899.16;4369552;79;21082;-91
2022/02/17 02:52:19;;;;;;;1.10;0.68;;;;;;;9.16;74.59;96862.19;4370310;80;21029;-91
2022/02/17 02:58:25;;;;;;;2.05;0.85;;;;;;;9.09;74.68;96845.95;4358255;80;21547;-91
2022/02/17 03:04:30;;;;;;;4.30;0.70;;;;;;;9.12;74.92;96825.23;4351635;80;21052;-90
2022/02/17 03:10:34;;;;;;;1.22;0.80;;;;;;;9.10;76.02;96842.61;4283755;81;21123;-91
2022/02/17 03:16:36;;;;;;;2.62;0.93;;;;;;;8.89;77.76;96821.94;4266722;81;21022;-91
2022/02/17 03:22:40;;;;;;;1.02;0.78;;;;;;;8.67;79.51;96807.11;4288540;81;21048;-91
2022/02/17 03:28:45;;;;;;;1.77;1.10;;;;;;;8.57;82.45;96798.48;4289051;81;21058;-91
2022/02/17 03:34:49;;;;;;;1.22;0.82;;;;;;;8.44;83.64;96771.61;4361163;80;21030;-93
2022/02/17 03:40:52;;;;;;;1.17;1.00;;;;;;;8.40;87.12;96740.14;4356348;80;21152;-90
2022/02/17 03:46:58;;;;;;;2.27;1.20;;;;;;;8.43;86.67;96717.50;4289098;81;21089;-90
2022/02/17 03:53:02;;;;;;;3.42;1.27;;;;;;;8.43;87.25;96686.93;4197337;83;21187;-91
2022/02/17 03:59:07;;;;;;;1.67;0.72;;;;;;;8.51;86.65;96654.85;4279000;82;22351;-91
2022/02/17 04:05:11;;;;;;;1.47;0.60;;;;;;;8.66;86.03;96656.16;4083312;82;1252615;-92
2022/02/17 04:11:13;;;;;;;1.40;0.75;;;;;;;8.81;86.10;96647.28;4080057;85;21059;-90
2022/02/17 04:17:18;;;;;;;1.13;0.50;;;;;;;8.96;85.08;96612.28;4171234;81;2107420;-92
2022/02/17 04:23:32;;;;;;;1.15;0.60;;;;;;;9.07;84.35;96609.52;4326651;80;21523;-90
2022/02/17 04:29:35;;;;;;;0.70;0.40;;;;;;;9.07;83.76;96621.80;4404820;78;21105;-90
2022/02/17 04:35:39;;;;;;;0.75;0.40;;;;;;;9.15;83.82;96631.97;4422143;79;21307;-89
2022/02/17 04:48:05;;;;;;;1.00;0.50;;;;;;;9.29;82.57;96639.86;4418720;79;20995;-93
2022/02/17 04:54:07;;;;;;;1.02;0.70;;;;;;;9.41;81.80;96612.67;4395592;79;21028;-91
2022/02/17 05:00:13;;;;;;;1.30;0.60;;;;;;;9.40;81.94;96613.09;4415688;78;192677;-91
2022/02/17 05:06:21;;;;;;;1.00;0.50;;;;;;;9.46;81.28;96618.22;4276989;82;21029;-93
2022/02/17 05:12:25;;;;;;;1.35;0.53;;;;;;;9.48;81.00;96577.61;4281077;82;21080;-91
2022/02/17 05:18:28;;;;;;;1.07;0.50;;;;;;;9.56;80.62;96565.33;4284459;82;21184;-91
2022/02/17 05:24:31;;;;;;;1.27;0.40;;;;;;;9.58;80.34;96558.23;4285757;82;21659;-91
2022/02/17 05:30:52;;;;;;;1.17;0.57;;;;;;;9.67;80.00;96539.90;4178738;84;21616;-92
2022/02/17 05:37:12;;;;;;;0.78;0.30;;;;;;;9.65;80.04;96519.06;4184468;83;21033;-90
2022/02/17 05:49:55;;;;;;;0.68;0.40;;;;;;;9.86;79.68;96511.72;4665771;74;22959;-89
2022/02/17 05:55:57;;;;;;;0.93;0.50;;;;;;;9.82;79.85;96511.64;4584408;75;21054;-89
2022/02/17 06:01:58;;;;;;;1.70;0.60;;;;;;;9.86;79.56;96498.64;4602965;75;21068;-91
2022/02/17 06:07:59;;;;;;;1.62;0.50;;;;;;;9.93;79.36;96484.81;4604693;75;21022;-90
2022/02/17 06:14:02;;;;;;;1.90;0.70;;;;;;;9.93;79.43;96482.08;4586603;75;21042;-89
2022/02/17 06:20:13;;;;;;;1.05;0.65;;;;;;;9.97;79.66;96479.42;4582031;75;20986;-89
2022/02/17 06:26:18;;;;;;;1.00;0.60;;;;;;;9.98;79.48;96470.01;4578195;75;21568;-89
2022/02/17 06:32:18;;;;;;;0.57;0.28;;;;;;;9.94;79.75;96465.25;4600504;75;21022;-89
2022/02/17 06:38:19;;;;;;;1.50;0.60;;;;;;;9.95;79.63;96450.97;4588561;75;20999;-90
2022/02/17 06:44:21;;;;;;;1.12;0.80;;;;;;;9.92;80.02;96430.75;4606736;75;21528;-90
2022/02/17 06:50:22;;;;;;;1.30;0.82;;;;;;;9.89;80.69;96378.33;4580412;75;21326;-89
2022/02/17 06:56:24;;;;;;;2.72;0.80;;;;;;;9.95;80.92;96393.58;4584507;75;21096;-89
2022/02/17 07:02:27;;;;;;;1.35;0.70;;;;;;;9.96;80.87;96377.37;4594343;75;21016;-90
2022/02/17 07:08:29;;;;;;;1.50;0.70;;;;;;;9.95;80.93;96366.25;4589474;75;21020;-90
2022/02/17 07:14:30;;;;;;;1.70;0.90;;;;;;;9.98;80.86;96348.98;4596829;75;21464;-89
2022/02/17 07:20:32;;;;;;;1.40;0.50;;;;;;;9.98;81.43;96312.87;4599630;75;21493;-90
2022/02/17 07:26:35;;;;;;;1.30;0.62;;;;;;;10.05;81.47;96305.06;4576679;75;21066;-89
2022/02/17 07:32:42;;;;;;;1.45;0.78;;;;;;;10.33;81.22;96291.94;4582592;75;21014;-90
2022/02/17 07:38:43;;;;;;;0.88;0.60;;;;;;;10.79;79.31;96258.42;4590209;75;21617;-90
2022/02/17 07:44:44;;;;;;;2.72;1.45;;;;;;;10.87;79.14;96233.70;4604695;75;20994;-90
2022/02/17 07:50:46;;;;;;;1.05;0.70;;;;;;;10.73;78.86;96224.59;4583919;76;21607;-90
2022/02/17 07:56:47;;;;;;;1.35;0.95;;;;;;;10.78;77.73;96215.23;4590429;76;21606;-89
2022/02/17 08:02:48;;;;;;;1.87;0.82;;;;;;;10.83;77.25;96238.53;4591525;76;22151;-89
2022/02/17 08:08:51;;;;;;;7.00;0.70;;;;;;;10.85;77.52;96410.65;4597913;76;21498;-89
2022/02/17 08:14:52;;;;;;;4.58;0.30;;;;;;;9.58;72.66;96607.41;4592000;76;21038;-90
2022/02/17 08:20:55;;;;;;;2.15;0.57;;;;;;;6.88;75.63;96679.40;4591807;76;21040;-90
2022/02/17 08:26:56;;;;;;;3.20;0.60;;;;;;;5.57;76.78;96712.91;4583317;76;21032;-89
2022/02/17 08:32:58;;;;;;;2.30;1.10;;;;;;;5.13;77.83;96762.34;4591540;76;21044;-89
2022/02/17 08:39:00;;;;;;;4.00;1.40;;;;;;;4.90;79.11;96819.53;4583034;76;21034;-91
2022/02/17 08:45:03;;;;;;;6.15;1.60;;;;;;;4.74;80.87;96846.44;4579346;75;21044;-90
2022/02/17 08:51:04;;;;;;;4.97;1.33;;;;;;;4.71;81.80;96867.54;4628185;75;21050;-90
2022/02/17 08:57:06;;;;;;;4.05;1.60;;;;;;;4.65;82.86;96882.64;4633131;75;20991;-91
2022/02/17 09:03:11;;;;;;;5.28;1.80;;;;;;;4.75;84.92;96854.78;4640480;75;21538;-89
2022/02/17 09:09:11;;;;;;;7.03;1.72;;;;;;;4.85;85.67;96815.27;4637968;75;21033;-89
2022/02/17 09:15:13;;;;;;;9.95;2.72;;;;;;;4.93;88.44;96723.28;4632862;75;21075;-90
2022/02/17 09:21:16;;;;;;;4.60;1.82;;;;;;;5.04;89.19;96752.49;4649690;75;21551;-90
2022/02/17 09:27:18;;;;;;;6.75;2.00;;;;;;;5.12;89.74;96745.85;4539268;75;29084;-89
2022/02/17 09:33:19;;;;;;;5.42;2.02;;;;;;;5.16;92.88;96752.05;4459601;78;21036;-90
2022/02/17 09:39:21;;;;;;;7.72;3.42;;;;;;;5.20;92.92;96782.64;4464913;78;21029;-90
2022/02/17 09:45:24;;;;;;;6.92;2.45;;;;;;;5.22;93.36;96845.41;4478896;77;21112;-89
2022/02/17 09:51:26;;;;;;;9.03;3.52;;;;;;;5.21;91.65;96867.50;4536654;77;20989;-89
2022/02/17 09:57:32;;;;;;;8.20;3.20;;;;;;;5.23;94.06;96799.48;4525188;77;20979;-90
2022/02/17 10:03:36;;;;;;;7.08;2.87;;;;;;;5.17;93.45;96807.08;4527385;77;21018;-89
2022/02/17 10:09:41;;;;;;;8.10;2.72;;;;;;;5.16;93.93;96768.91;4521727;77;21026;-89
2022/02/17 10:15:43;;;;;;;8.20;3.10;;;;;;;5.25;93.50;96771.39;4527645;77;20971;-89
2022/02/17 10:21:44;;;;;;;8.18;2.58;;;;;;;5.51;93.68;96764.70;4533216;77;21608;-90
2022/02/17 10:27:46;;;;;;;4.83;2.10;;;;;;;5.74;92.54;96745.96;4534359;77;21848;-90
2022/02/17 10:33:52;;;;;;;7.83;2.42;;;;;;;5.89;91.86;96748.22;4528820;77;21042;-90
2022/02/17 10:39:51;;;;;;;12.47;3.85;;;;;;;6.08;92.49;96739.56;4531086;77;20971;-90
2022/02/17 10:45:52;;;;;;;12.07;4.08;;;;;;;6.33;92.49;96708.89;4529027;76;21085;-90
2022/02/17 10:51:57;;;;;;;6.15;2.15;;;;;;;6.67;91.05;96705.48;4531253;77;22018;-89
2022/02/17 10:57:59;;;;;;;6.22;2.62;;;;;;;6.92;89.98;96704.02;4498698;77;21093;-91
2022/02/17 11:04:00;;;;;;;5.45;2.30;;;;;;;7.14;87.71;96697.16;4533910;77;21482;-90
2022/02/17 11:10:04;;;;;;;4.55;1.60;;;;;;;7.33;87.15;96688.98;4527202;77;21040;-89
2022/02/17 11:16:07;;;;;;;4.08;1.15;;;;;;;7.61;85.86;96681.79;4521566;77;21006;-89
2022/02/17 11:22:24;;;;;;;4.20;1.60;;;;;;;7.79;82.19;96662.64;4534609;77;21606;-89
2022/02/17 11:28:37;;;;;;;2.35;1.00;;;;;;;8.06;83.41;96666.70;4526026;77;21538;-90
2022/02/17 11:34:55;;;;;;;3.17;1.00;;;;;;;8.42;79.43;96667.68;4548384;76;20994;-90
2022/02/17 11:41:08;;;;;;;2.70;0.98;;;;;;;8.57;80.99;96645.00;4534049;77;21020;-91
2022/02/17 11:47:09;;;;;;;5.85;0.88;;;;;;;8.73;78.67;96649.19;4533237;77;22084;-90
2022/02/17 11:53:33;;;;;;;4.70;1.20;;;;;;;9.03;79.32;96683.10;4522277;77;21040;-89
2022/02/17 11:59:36;;;;;;;3.80;1.30;;;;;;;9.41;79.30;96685.64;4526321;77;21064;-91
2022/02/17 12:05:37;;;;;;;4.20;1.30;;;;;;;9.43;76.93;96721.47;4530372;77;21026;-90
2022/02/17 12:11:41;;;;;;;6.17;1.87;;;;;;;9.21;74.00;96682.14;4530348;77;21323;-90
2022/02/17 12:17:45;;;;;;;6.08;1.67;;;;;;;9.14;75.07;96687.76;4516939;77;20993;-89
2022/02/17 12:23:47;;;;;;;4.45;1.60;;;;;;;9.12;74.11;96688.77;4519541;77;21632;-90
2022/02/17 12:29:48;;;;;;;3.40;1.40;;;;;;;9.17;75.00;96684.19;4536746;77;21318;-91
2022/02/17 12:36:03;;;;;;;4.92;2.00;;;;;;;9.45;70.62;96691.79;4537427;76;21081;-90
2022/02/17 12:42:09;;;;;;;5.75;1.60;;;;;;;9.35;72.20;96699.01;4527284;77;22400;-88
2022/02/17 12:48:14;;;;;;;5.33;2.30;;;;;;;9.26;72.18;96669.37;4536976;76;21018;-87
2022/02/17 12:54:17;;;;;;;5.58;1.65;;;;;;;9.27;72.43;96687.30;4520350;77;21527;-87
2022/02/17 13:00:19;;;;;;;5.55;1.47;;;;;;;9.36;71.47;96691.59;4548080;77;20998;-89
2022/02/17 13:06:27;;;;;;;9.30;1.50;;;;;;;9.68;67.92;96710.05;4529568;77;21066;-88
2022/02/17 13:12:28;;;;;;;5.08;1.80;;;;;;;9.86;69.48;96729.53;4531586;77;21058;-88
2022/02/17 13:18:30;;;;;;;6.62;1.55;;;;;;;9.84;66.22;96733.28;4529810;77;21002;-89
2022/02/17 13:24:33;;;;;;;8.35;1.92;;;;;;;9.72;66.07;96748.97;4515453;76;21011;-88
2022/02/17 13:30:36;;;;;;;6.65;1.77;;;;;;;9.63;63.79;96755.61;4497422;77;20983;-88
2022/02/17 13:36:41;;;;;;;9.18;1.67;;;;;;;9.49;65.18;96760.16;4532088;77;21552;-90
2022/02/17 13:43:20;;;;;;;5.47;1.62;;;;;;;9.33;65.68;96783.91;4521902;77;21004;-88
2022/02/17 13:49:17;;;;;;;5.65;1.70;;;;;;;9.26;64.91;96786.75;4516987;77;21194;-89
2022/02/17 13:55:19;;;;;;;4.62;1.65;;;;;;;9.12;63.89;96791.89;4523428;77;21005;-88
2022/02/17 14:01:22;;;;;;;5.25;2.35;;;;;;;9.09;62.89;96790.00;4523445;77;21493;-89
2022/02/17 14:07:23;;;;;;;4.55;1.92;;;;;;;8.95;63.40;96793.56;4530202;76;21029;-90
2022/02/17 14:13:24;;;;;;;10.40;2.25;;;;;;;8.89;64.83;96800.70;4521213;77;21030;-90
2022/02/17 14:19:25;;;;;;;6.15;2.45;;;;;;;8.90;64.00;96796.77;4511459;77;21607;-89
2022/02/17 14:25:29;;;;;;;8.30;2.17;;;;;;;8.88;64.16;96812.80;4530207;77;21019;-88
2022/02/17 14:31:30;;;;;;;8.25;2.92;;;;;;;8.88;64.30;96800.53;4541259;77;20990;-89
2022/02/17 14:37:32;;;;;;;9.93;3.00;;;;;;;8.86;64.52;96815.95;4522769;77;21003;-88
2022/02/17 14:43:35;;;;;;;9.03;3.47;;;;;;;8.85;64.76;96813.02;4520208;77;21011;-89
2022/02/17 14:49:38;;;;;;;11.08;2.83;;;;;;;8.87;65.29;96837.95;4522477;76;21538;-91
2022/02/17 14:55:41;;;;;;;5.92;2.62;;;;;;;8.84;65.58;96840.72;4527281;77;21581;-89
2022/02/17 15:01:43;;;;;;;9.30;3.67;;;;;;;8.74;65.65;96853.34;4528330;77;21038;-90
2022/02/17 15:07:44;;;;;;;7.17;2.92;;;;;;;8.61;66.47;96849.67;4521518;77;21025;-91
2022/02/17 15:13:46;;;;;;;11.55;3.00;;;;;;;8.38;66.83;96871.42;4514060;77;20990;-91
2022/02/17 15:26:07;;;;;;;8.18;2.65;;;;;;;7.82;69.02;96870.19;4531081;77;21023;-89
2022/02/17 15:32:09;;;;;;;8.75;2.75;;;;;;;7.72;69.30;96891.49;4518977;77;22275;-89
2022/02/17 15:38:11;;;;;;;6.58;2.22;;;;;;;7.75;68.90;96901.58;4516925;77;21050;-89
2022/02/17 15:44:12;;;;;;;9.45;2.20;;;;;;;7.84;67.86;96899.16;4530472;77;21456;-88
2022/02/17 15:50:15;;;;;;;6.95;2.00;;;;;;;7.92;67.24;96918.91;4514517;77;21069;-89
2022/02/17 15:56:19;;;;;;;4.33;1.30;;;;;;;7.94;64.92;96921.98;4541944;77;21073;-90
2022/02/17 16:02:20;;;;;;;2.90;1.12;;;;;;;7.94;63.66;96945.92;4538792;77;21007;-90
2022/02/17 16:08:22;;;;;;;5.12;1.72;;;;;;;8.00;60.52;96966.70;4533938;77;21587;-90
2022/02/17 16:14:24;;;;;;;7.03;1.75;;;;;;;8.03;60.51;96974.05;4523491;77;21621;-89
2022/02/17 16:20:26;;;;;;;5.67;2.00;;;;;;;7.99;60.50;96990.44;4529747;77;21521;-89
2022/02/17 16:26:28;;;;;;;7.80;2.08;;;;;;;7.90;60.57;97003.77;4529842;77;21111;-88
2022/02/17 16:32:29;;;;;;;6.25;2.08;;;;;;;7.93;61.07;97022.03;4536702;77;21494;-90
2022/02/17 16:38:33;;;;;;;6.35;2.22;;;;;;;7.94;59.97;97044.58;4527531;76;21063;-88
2022/02/17 16:44:35;;;;;;;5.78;1.40;;;;;;;7.95;59.25;97067.94;4543565;76;21076;-88
2022/02/17 16:50:39;;;;;;;4.75;1.90;;;;;;;7.96;57.27;97076.29;4526971;77;21592;-89
2022/02/17 16:56:44;;;;;;;6.70;2.17;;;;;;;7.99;57.46;97103.52;4539790;77;21549;-90
2022/02/17 17:02:46;;;;;;;6.10;1.98;;;;;;;7.98;57.98;97103.34;4541045;76;21054;-88
2022/02/17 17:08:49;;;;;;;3.42;0.95;;;;;;;7.90;57.36;97148.16;4532165;77;21640;-88
2022/02/17 17:14:50;;;;;;;3.33;1.50;;;;;;;7.79;57.10;97133.06;4532192;77;21480;-89
2022/02/17 17:20:51;;;;;;;8.03;2.75;;;;;;;7.70;57.99;97149.87;4522919;77;21133;-89
2022/02/17 17:26:53;;;;;;;5.67;3.20;;;;;;;7.66;57.57;97149.69;4529415;77;21020;-89
2022/02/17 17:32:54;;;;;;;9.48;3.95;;;;;;;7.60;57.67;97172.48;4528650;77;21065;-90
2022/02/17 17:38:56;;;;;;;5.85;3.02;;;;;;;7.52;58.71;97190.04;4534983;77;21011;-89
2022/02/17 17:51:19;;;;;;;5.33;2.12;;;;;;;6.86;62.68;97272.70;4527020;77;21054;-89
2022/02/17 17:57:20;;;;;;;5.83;1.65;;;;;;;6.39;65.54;97274.48;4533048;76;21522;-88
2022/02/17 18:03:24;;;;;;;5.22;2.10;;;;;;;6.16;67.08;97281.67;4490242;77;21029;-89
2022/02/17 18:09:26;;;;;;;5.62;2.25;;;;;;;5.94;66.84;97292.88;4515760;77;21001;-89
2022/02/17 18:15:29;;;;;;;5.95;2.58;;;;;;;5.80;67.50;97337.05;4521283;77;20991;-90
2022/02/17 18:21:30;;;;;;;6.75;2.37;;;;;;;5.75;68.41;97364.56;4514035;77;21533;-89
2022/02/17 18:27:34;;;;;;;9.63;2.70;;;;;;;5.62;72.47;97376.91;4527894;77;21407;-88
2022/02/17 18:33:34;;;;;;;8.63;2.55;;;;;;;5.25;72.89;97374.98;4508894;77;20991;-89
2022/02/17 18:39:36;;;;;;;6.87;2.83;;;;;;;5.10;73.23;97394.25;4512500;77;20991;-88
2022/02/17 18:45:38;;;;;;;9.90;3.05;;;;;;;5.12;74.76;97383.81;4528003;77;20971;-89
2022/02/17 18:51:40;;;;;;;6.67;2.10;;;;;;;5.34;74.06;97397.12;4512243;77;21499;-89
2022/02/17 18:57:44;;;;;;;9.98;2.42;;;;;;;5.64;72.46;97390.89;4520919;77;22120;-89
2022/02/17 19:03:45;;;;;;;6.65;2.15;;;;;;;5.68;72.02;97393.63;4507482;77;21113;-88
2022/02/17 19:09:46;;;;;;;11.10;3.30;;;;;;;5.75;72.22;97400.44;4509945;77;21030;-91
2022/02/17 19:15:48;;;;;;;9.65;2.47;;;;;;;5.77;72.23;97449.14;4506901;77;21570;-90
2022/02/17 19:21:49;;;;;;;11.55;3.70;;;;;;;5.59;73.37;97490.33;4522454;77;21589;-92
2022/02/17 19:27:57;;;;;;;7.80;2.60;;;;;;;5.42;75.26;97483.45;4506373;77;21676;-88
2022/02/17 19:34:00;;;;;;;9.18;2.62;;;;;;;5.28;75.18;97460.28;4516161;77;20995;-89
2022/02/17 19:40:05;;;;;;;14.03;4.17;;;;;;;5.13;75.52;97482.44;4526356;77;21053;-89
2022/02/17 19:46:06;;;;;;;36.68;5.30;;;;;;;4.91;76.17;97504.31;4510932;77;21050;-90
2022/02/17 19:52:08;;;;;;;16.55;4.97;;;;;;;4.75;76.53;97505.34;4532279;77;21545;-89
2022/02/17 19:58:10;;;;;;;14.75;4.30;;;;;;;4.67;77.58;97489.36;4523267;77;22230;-88
2022/02/17 20:04:14;;;;;;;9.10;4.40;;;;;;;4.58;78.20;97514.64;4527836;77;20975;-89
